createdAt,value
2023-01-26T00:01:25.325Z,6.2
2023-01-26T00:03:51.944Z,6.2
2023-01-26T00:06:18.610Z,6.2
2023-01-26T00:08:45.311Z,6.1
2023-01-26T00:11:11.996Z,6.1
2023-01-26T00:13:38.687Z,6.1
2023-01-26T00:16:05.353Z,6.1
2023-01-26T00:18:32.063Z,6.1
2023-01-26T00:20:58.727Z,6.1
2023-01-26T00:25:52.100Z,6.1
2023-01-26T00:28:18.791Z,6.2
2023-01-26T00:30:44.018Z,6.1
2023-01-26T00:33:10.689Z,6.1
2023-01-26T00:35:37.375Z,6.1
2023-01-26T00:38:04.069Z,6.1
2023-01-26T00:40:30.747Z,6.1
2023-01-26T00:42:57.445Z,6.1
2023-01-26T00:45:24.153Z,6.1
2023-01-26T00:47:50.795Z,6.1
2023-01-26T00:50:17.502Z,6.1
2023-01-26T00:52:44.183Z,6.1
2023-01-26T00:55:10.866Z,6.1
2023-01-26T00:57:37.572Z,6.1
2023-01-26T01:00:02.782Z,6.1
2023-01-26T01:02:29.495Z,6.1
2023-01-26T01:04:56.167Z,6.1
2023-01-26T01:07:22.845Z,6.1
2023-01-26T01:09:49.546Z,6.1
2023-01-26T01:12:16.245Z,6.1
2023-01-26T01:14:42.902Z,6.1
2023-01-26T01:17:09.580Z,6.1
2023-01-26T01:19:36.262Z,6.1
2023-01-26T01:22:02.964Z,6.1
2023-01-26T01:24:29.632Z,6.1
2023-01-26T01:26:56.345Z,6.1
2023-01-26T01:29:23.013Z,6.1
2023-01-26T01:31:48.231Z,6.1
2023-01-26T01:34:14.931Z,6.1
2023-01-26T01:36:41.601Z,6.1
2023-01-26T01:39:08.305Z,6.1
2023-01-26T01:41:34.984Z,6.1
2023-01-26T01:44:01.657Z,6.1
2023-01-26T01:46:28.349Z,6.1
2023-01-26T01:48:55.025Z,6.1
2023-01-26T01:53:48.400Z,6.1
2023-01-26T01:56:15.099Z,6.1
2023-01-26T01:58:41.773Z,6.1
2023-01-26T02:01:08.454Z,6.1
2023-01-26T02:03:35.144Z,6.1
2023-01-26T02:06:01.850Z,6.1
2023-01-26T02:08:27.071Z,6.1
2023-01-26T02:10:53.734Z,6.1
2023-01-26T02:13:20.414Z,6.1
2023-01-26T02:15:47.101Z,6.1
2023-01-26T02:18:13.783Z,6.1
2023-01-26T02:20:40.482Z,6.1
2023-01-26T02:23:07.155Z,6.1
2023-01-26T02:25:33.850Z,6.1
2023-01-26T02:28:00.528Z,6.1
2023-01-26T02:30:27.222Z,6.1
2023-01-26T02:32:53.892Z,6.1
2023-01-26T02:35:20.598Z,6.1
2023-01-26T02:37:47.284Z,6.1
2023-01-26T02:40:13.963Z,6.1
2023-01-26T02:42:39.176Z,6.1
2023-01-26T02:45:05.872Z,6.1
2023-01-26T02:47:32.544Z,6.1
2023-01-26T02:52:25.925Z,6.1
2023-01-26T02:54:52.613Z,6.1
2023-01-26T02:57:19.297Z,6
2023-01-26T02:59:45.977Z,6
2023-01-26T03:02:12.654Z,6.1
2023-01-26T03:04:39.349Z,6
2023-01-26T03:07:06.027Z,6
2023-01-26T03:09:32.716Z,6
2023-01-26T03:11:59.390Z,6
2023-01-26T03:14:24.609Z,6
2023-01-26T03:16:51.301Z,6
2023-01-26T03:19:17.993Z,6
2023-01-26T03:21:44.690Z,6
2023-01-26T03:24:11.369Z,6
2023-01-26T03:26:38.039Z,6.1
2023-01-26T03:29:04.729Z,6
2023-01-26T03:31:31.404Z,6.1
2023-01-26T03:33:58.099Z,6
2023-01-26T03:36:24.790Z,6
2023-01-26T03:38:51.475Z,6
2023-01-26T03:41:18.167Z,6.1
2023-01-26T03:43:44.834Z,6
2023-01-26T03:46:11.532Z,6
2023-01-26T03:48:36.754Z,6
2023-01-26T03:51:03.441Z,6
2023-01-26T03:53:30.121Z,6
2023-01-26T03:55:56.798Z,6
2023-01-26T03:58:23.493Z,6
2023-01-26T04:00:50.170Z,6
2023-01-26T04:03:16.866Z,6
2023-01-26T04:05:43.533Z,5.9
2023-01-26T04:08:10.243Z,6
2023-01-26T04:10:36.919Z,6
2023-01-26T04:13:03.594Z,6
2023-01-26T04:15:30.282Z,5.9
2023-01-26T04:17:56.973Z,6
2023-01-26T04:20:22.198Z,6
2023-01-26T04:22:48.887Z,6
2023-01-26T04:25:15.557Z,6
2023-01-26T04:27:42.246Z,6
2023-01-26T04:30:08.924Z,5.9
2023-01-26T04:32:35.614Z,6
2023-01-26T04:35:02.513Z,6
2023-01-26T04:37:29.052Z,5.9
2023-01-26T04:39:55.680Z,5.9
2023-01-26T04:42:22.364Z,5.9
2023-01-26T04:44:49.057Z,6
2023-01-26T04:47:15.728Z,5.9
2023-01-26T04:49:42.413Z,5.9
2023-01-26T04:52:09.122Z,5.9
2023-01-26T04:54:34.321Z,5.9
2023-01-26T04:57:01.003Z,5.9
2023-01-26T04:59:27.715Z,5.9
2023-01-26T05:01:54.421Z,5.9
2023-01-26T05:04:21.056Z,5.9
2023-01-26T05:06:47.750Z,5.9
2023-01-26T05:09:14.438Z,5.9
2023-01-26T05:11:41.108Z,5.9
2023-01-26T05:14:08.049Z,5.9
2023-01-26T05:16:34.491Z,5.9
2023-01-26T05:19:01.167Z,5.9
2023-01-26T05:26:21.223Z,5.9
2023-01-26T05:28:47.911Z,5.9
2023-01-26T05:31:14.614Z,5.9
2023-01-26T05:33:39.833Z,5.9
2023-01-26T05:36:06.499Z,5.9
2023-01-26T05:38:33.205Z,5.9
2023-01-26T05:40:59.862Z,5.9
2023-01-26T05:43:26.565Z,5.9
2023-01-26T05:45:53.255Z,5.9
2023-01-26T05:48:19.966Z,5.9
2023-01-26T05:50:54.788Z,5.9
2023-01-26T05:55:39.977Z,5.9
2023-01-26T05:58:06.709Z,5.9
2023-01-26T06:00:31.915Z,5.9
2023-01-26T06:02:58.600Z,5.9
2023-01-26T06:07:50.505Z,5.9
2023-01-26T06:10:17.209Z,5.9
2023-01-26T06:12:43.950Z,5.9
2023-01-26T06:15:10.575Z,5.9
2023-01-26T06:20:03.965Z,5.9
2023-01-26T06:22:30.629Z,5.9
2023-01-26T06:24:57.300Z,5.9
2023-01-26T06:27:23.991Z,5.9
2023-01-26T06:29:50.714Z,5.9
2023-01-26T06:32:17.362Z,5.9
2023-01-26T06:39:37.417Z,5.9
2023-01-26T06:42:04.110Z,5.9
2023-01-26T06:44:29.367Z,5.9
2023-01-26T06:46:54.686Z,5.9
2023-01-26T06:49:21.268Z,5.9
2023-01-26T06:51:47.965Z,5.9
2023-01-26T06:54:14.657Z,5.9
2023-01-26T06:56:41.344Z,5.9
2023-01-26T06:59:08.037Z,6.1
2023-01-26T07:01:34.702Z,6.2
2023-01-26T07:04:01.379Z,6.4
2023-01-26T07:06:28.054Z,6.6
2023-01-26T07:08:54.743Z,6.7
2023-01-26T07:11:21.450Z,6.9
2023-01-26T07:13:46.721Z,7
2023-01-26T07:16:11.911Z,7.1
2023-01-26T07:18:38.600Z,7.1
2023-01-26T07:21:05.273Z,7.2
2023-01-26T07:23:31.954Z,7.3
2023-01-26T07:25:58.643Z,7.3
2023-01-26T07:33:18.714Z,7.4
2023-01-26T07:35:45.394Z,7.5
2023-01-26T07:38:12.055Z,7.6
2023-01-26T07:40:38.756Z,7.6
2023-01-26T07:43:05.457Z,7.7
2023-01-26T07:45:30.695Z,7.7
2023-01-26T07:47:55.920Z,7.7
2023-01-26T07:50:22.608Z,7.8
2023-01-26T07:52:49.291Z,7.9
2023-01-26T07:55:15.969Z,7.9
2023-01-26T07:57:42.654Z,7.9
2023-01-26T08:00:09.361Z,8
2023-01-26T08:02:36.042Z,8.1
2023-01-26T08:05:02.734Z,8.1
2023-01-26T08:07:29.379Z,8.1
2023-01-26T08:09:56.075Z,8.1
2023-01-26T08:12:21.345Z,8.2
2023-01-26T08:14:48.031Z,8.2
2023-01-26T08:17:13.241Z,8.2
2023-01-26T08:19:39.920Z,8.2
2023-01-26T08:22:06.604Z,8.3
2023-01-26T08:24:33.285Z,8.3
2023-01-26T08:26:59.995Z,8.4
2023-01-26T08:29:26.668Z,8.4
2023-01-26T08:34:20.037Z,8.5
2023-01-26T08:36:46.710Z,8.6
2023-01-26T08:39:13.389Z,8.6
2023-01-26T08:41:40.081Z,8.6
2023-01-26T08:44:07.026Z,8.6
2023-01-26T08:49:00.156Z,8.7
2023-01-26T08:51:25.384Z,8.7
2023-01-26T08:53:50.627Z,8.8
2023-01-26T08:58:44.044Z,8.8
2023-01-26T09:01:10.671Z,8.9
2023-01-26T09:03:37.359Z,8.9
2023-01-26T09:06:04.048Z,8.8
2023-01-26T09:08:30.737Z,8.6
2023-01-26T09:13:24.095Z,8.4
2023-01-26T09:18:16.032Z,8.2
2023-01-26T09:20:41.240Z,8.2
2023-01-26T09:23:07.944Z,8.1
2023-01-26T09:25:34.636Z,8.1
2023-01-26T09:30:28.011Z,8
2023-01-26T09:32:54.677Z,7.9
2023-01-26T09:35:21.372Z,7.9
2023-01-26T09:37:48.066Z,7.9
2023-01-26T09:40:14.746Z,7.9
2023-01-26T09:42:41.439Z,7.9
2023-01-26T09:45:08.114Z,7.8
2023-01-26T09:47:34.786Z,7.8
2023-01-26T09:50:01.512Z,7.8
2023-01-26T09:52:28.171Z,7.7
2023-01-26T09:54:53.421Z,7.7
2023-01-26T09:57:20.084Z,7.7
2023-01-26T10:02:13.436Z,7.7
2023-01-26T10:04:40.131Z,7.7
2023-01-26T10:07:06.808Z,7.7
2023-01-26T10:09:33.509Z,7.7
2023-01-26T10:12:00.203Z,7.7
2023-01-26T10:16:53.559Z,7.6
2023-01-26T10:19:20.412Z,7.6
2023-01-26T10:21:46.931Z,7.6
2023-01-26T10:24:13.603Z,7.6
2023-01-26T10:26:38.836Z,7.7
2023-01-26T10:29:05.557Z,7.6
2023-01-26T10:31:32.211Z,7.7
2023-01-26T10:33:58.889Z,7.7
2023-01-26T10:36:25.612Z,7.7
2023-01-26T10:38:52.281Z,7.7
2023-01-26T10:41:18.937Z,7.7
2023-01-26T10:46:12.323Z,7.7
2023-01-26T10:48:38.990Z,7.8
2023-01-26T10:51:05.681Z,7.8
2023-01-26T10:53:32.360Z,7.9
2023-01-26T10:55:59.058Z,8
2023-01-26T10:58:24.272Z,8
2023-01-26T11:00:50.948Z,7.9
2023-01-26T11:03:17.650Z,7.9
2023-01-26T11:05:44.380Z,7.9
2023-01-26T11:10:36.258Z,7.8
2023-01-26T11:13:02.972Z,7.7
2023-01-26T11:15:28.205Z,7.7
2023-01-26T11:17:54.851Z,7.7
2023-01-26T11:20:21.550Z,7.7
2023-01-26T11:22:48.223Z,7.7
2023-01-26T11:30:08.371Z,7.7
2023-01-26T11:32:34.970Z,7.7
2023-01-26T11:35:01.724Z,7.7
2023-01-26T11:37:28.340Z,7.7
2023-01-26T11:39:55.039Z,7.7
2023-01-26T11:44:48.402Z,7.7
2023-01-26T11:47:13.649Z,7.6
2023-01-26T11:49:40.290Z,7.6
2023-01-26T11:52:06.996Z,7.6
2023-01-26T11:54:33.675Z,7.6
2023-01-26T11:59:27.036Z,7.6
2023-01-26T12:01:53.721Z,7.6
2023-01-26T12:04:20.430Z,7.6
2023-01-26T12:06:47.085Z,7.6
2023-01-26T12:09:13.774Z,7.6
2023-01-26T12:14:07.147Z,7.6
2023-01-26T12:16:33.855Z,7.6
2023-01-26T12:19:00.532Z,7.6
2023-01-26T12:21:27.197Z,7.6
2023-01-26T12:23:52.416Z,7.6
2023-01-26T12:28:45.794Z,7.5
2023-01-26T12:31:12.479Z,7.6
2023-01-26T12:33:39.186Z,7.5
2023-01-26T12:36:05.862Z,7.5
2023-01-26T12:38:32.553Z,7.5
2023-01-26T12:43:25.918Z,7.6
2023-01-26T12:45:52.594Z,7.5
2023-01-26T12:48:19.279Z,7.5
2023-01-26T12:50:45.961Z,7.5
2023-01-26T12:53:12.782Z,7.5
2023-01-26T12:55:37.989Z,7.5
2023-01-26T12:58:04.560Z,7.5
2023-01-26T13:00:31.234Z,7.5
2023-01-26T13:02:57.941Z,7.5
2023-01-26T13:05:24.704Z,7.5
2023-01-26T13:07:51.327Z,7.4
2023-01-26T13:10:18.002Z,7.5
2023-01-26T13:15:11.359Z,7.5
2023-01-26T13:17:38.032Z,7.4
2023-01-26T13:20:04.743Z,7.5
2023-01-26T13:22:31.424Z,7.4
2023-01-26T13:24:58.112Z,7.5
2023-01-26T13:29:51.470Z,7.5
2023-01-26T13:32:18.180Z,7.5
2023-01-26T13:34:43.383Z,7.4
2023-01-26T13:37:10.048Z,7.4
2023-01-26T13:39:36.750Z,7.5
2023-01-26T13:42:03.417Z,7.4
2023-01-26T13:44:30.125Z,7.4
2023-01-26T13:46:56.801Z,7.4
2023-01-26T13:49:23.488Z,7.5
2023-01-26T13:51:50.192Z,7.5
2023-01-26T13:56:43.543Z,7.4
2023-01-26T13:59:10.261Z,7.4
2023-01-26T14:01:36.992Z,7.5
2023-01-26T14:04:03.601Z,7.4
2023-01-26T14:06:28.836Z,7.4
2023-01-26T14:11:22.191Z,7.5
2023-01-26T14:13:48.877Z,7.4
2023-01-26T14:16:15.611Z,7.4
2023-01-26T14:18:42.245Z,7.4
2023-01-26T14:21:09.013Z,7.4
2023-01-26T14:26:02.304Z,7.4
2023-01-26T14:28:29.045Z,7.4
2023-01-26T14:30:55.669Z,7.4
2023-01-26T14:35:49.038Z,7.4
2023-01-26T14:43:07.642Z,7.4
2023-01-26T14:45:34.488Z,7.4
2023-01-26T14:48:01.091Z,7.4
2023-01-26T14:50:27.685Z,7.4
2023-01-26T14:55:21.065Z,7.4
2023-01-26T14:57:47.738Z,7.4
2023-01-26T15:00:14.436Z,7.4
2023-01-26T15:02:41.122Z,7.4
2023-01-26T15:05:07.788Z,7.4
2023-01-26T15:10:01.183Z,7.4
2023-01-26T15:12:26.373Z,7.4
2023-01-26T15:14:53.091Z,7.4
2023-01-26T15:17:19.758Z,7.4
2023-01-26T15:19:46.471Z,7.4
2023-01-26T15:22:13.201Z,7.4
2023-01-26T15:24:39.836Z,7.5
2023-01-26T15:27:06.493Z,7.6
2023-01-26T15:29:33.185Z,7.7
2023-01-26T15:31:59.888Z,7.9
2023-01-26T15:34:26.567Z,8.1
2023-01-26T15:39:19.935Z,8.2
2023-01-26T15:41:46.602Z,8.3
2023-01-26T15:44:13.304Z,8.4
2023-01-26T15:46:38.514Z,8.4
2023-01-26T15:49:05.215Z,8.5
2023-01-26T15:51:31.909Z,8.6
2023-01-26T15:53:58.691Z,8.6
2023-01-26T15:56:25.252Z,8.7
2023-01-26T15:58:51.948Z,8.7
2023-01-26T16:01:17.201Z,8.6
2023-01-26T16:03:43.896Z,8.5
2023-01-26T16:06:09.115Z,8.4
2023-01-26T16:08:36.054Z,8.4
2023-01-26T16:11:02.480Z,8.2
2023-01-26T16:13:29.156Z,8.2
2023-01-26T16:15:55.857Z,8.2
2023-01-26T16:18:22.524Z,8.1
2023-01-26T16:23:15.907Z,8.1
2023-01-26T16:25:42.585Z,8.1
2023-01-26T16:28:09.280Z,8
2023-01-26T16:30:35.970Z,8
2023-01-26T16:33:02.741Z,8
2023-01-26T16:37:56.014Z,7.9
2023-01-26T16:40:21.253Z,7.9
2023-01-26T16:47:41.318Z,7.9
2023-01-26T16:50:06.543Z,7.9
2023-01-26T16:52:33.216Z,7.9
2023-01-26T16:54:59.907Z,7.9
2023-01-26T16:57:26.604Z,7.9
2023-01-26T16:59:53.292Z,7.9
2023-01-26T17:02:19.966Z,7.9
2023-01-26T17:04:46.655Z,7.9
2023-01-26T17:07:13.332Z,7.8
2023-01-26T17:09:40.027Z,7.8
2023-01-26T17:12:06.713Z,7.8
2023-01-26T17:16:58.628Z,8.1
2023-01-26T17:19:25.344Z,8.2
2023-01-26T17:21:52.018Z,8.3
2023-01-26T17:24:17.238Z,8.4
2023-01-26T17:26:43.941Z,8.5
2023-01-26T17:31:37.286Z,8.6
2023-01-26T17:34:02.538Z,8.7
2023-01-26T17:36:29.322Z,8.7
2023-01-26T17:38:55.911Z,8.7
2023-01-26T17:41:22.601Z,8.8
2023-01-26T17:43:49.303Z,8.8
2023-01-26T17:46:16.007Z,8.9
2023-01-26T17:48:42.644Z,8.9
2023-01-26T17:51:09.333Z,8.9
2023-01-26T17:58:29.388Z,9.1
2023-01-26T18:00:56.068Z,9.1
2023-01-26T18:03:22.761Z,9.1
2023-01-26T18:08:16.129Z,8.9
2023-01-26T18:10:42.807Z,8.8
2023-01-26T18:15:34.758Z,8.7
2023-01-26T18:18:01.424Z,8.6
2023-01-26T18:20:28.095Z,8.6
2023-01-26T18:22:54.770Z,8.5
2023-01-26T18:25:21.462Z,8.4
2023-01-26T18:27:48.168Z,8.4
2023-01-26T18:30:14.823Z,8.4
2023-01-26T18:32:41.525Z,8.4
2023-01-26T18:35:08.190Z,8.3
2023-01-26T18:37:34.876Z,8.3
2023-01-26T18:40:01.577Z,8.3
2023-01-26T18:42:28.275Z,8.3
2023-01-26T18:44:53.545Z,8.2
2023-01-26T18:47:20.173Z,8.2
2023-01-26T18:49:46.858Z,8.2
2023-01-26T18:52:13.539Z,8.2
2023-01-26T18:54:40.229Z,8.2
2023-01-26T18:57:06.906Z,8.2
2023-01-26T18:59:33.647Z,8.2
2023-01-26T19:01:58.853Z,8.2
2023-01-26T19:04:25.541Z,8.2
2023-01-26T19:06:50.756Z,8.2
2023-01-26T19:09:17.438Z,8.1
2023-01-26T19:11:44.108Z,8.1
2023-01-26T19:14:10.839Z,8.1
2023-01-26T19:19:04.190Z,8.1
2023-01-26T19:21:30.857Z,8.1
2023-01-26T19:23:57.548Z,8.1
2023-01-26T19:26:24.247Z,8.1
2023-01-26T19:28:50.917Z,8.1
2023-01-26T19:33:44.298Z,8.1
2023-01-26T19:36:10.980Z,8
2023-01-26T19:38:37.668Z,8
2023-01-26T19:41:02.909Z,8
2023-01-26T19:43:28.133Z,8
2023-01-26T19:48:21.505Z,8
2023-01-26T19:53:14.889Z,8
2023-01-26T19:55:41.559Z,7.9
2023-01-26T19:58:08.255Z,7.9
2023-01-26T20:03:01.614Z,7.9
2023-01-26T20:05:28.302Z,7.9
2023-01-26T20:07:54.980Z,7.9
2023-01-26T20:12:48.365Z,7.9
2023-01-26T20:15:13.577Z,7.9
2023-01-26T20:17:40.260Z,7.9
2023-01-26T20:20:06.927Z,7.9
2023-01-26T20:22:33.631Z,7.9
2023-01-26T20:27:26.995Z,7.9
2023-01-26T20:34:47.053Z,7.9
2023-01-26T20:37:13.769Z,7.9
2023-01-26T20:39:40.421Z,7.9
2023-01-26T20:42:07.099Z,7.9
2023-01-26T20:47:00.482Z,7.9
2023-01-26T20:49:25.697Z,7.9
2023-01-26T20:51:54.476Z,7.9
2023-01-26T20:54:19.097Z,7.8
2023-01-26T20:56:45.770Z,7.9
2023-01-26T21:01:39.121Z,7.8
2023-01-26T21:04:05.802Z,7.8
2023-01-26T21:06:32.500Z,7.8
2023-01-26T21:08:59.187Z,7.8
2023-01-26T21:11:25.864Z,7.8
2023-01-26T21:13:52.561Z,7.9
2023-01-26T21:16:19.236Z,7.8
2023-01-26T21:21:12.614Z,7.8
2023-01-26T21:23:39.348Z,7.8
2023-01-26T21:26:04.557Z,7.8
2023-01-26T21:28:31.191Z,7.8
2023-01-26T21:30:57.894Z,7.8
2023-01-26T21:33:24.580Z,7.8
2023-01-26T21:35:51.263Z,7.8
2023-01-26T21:40:44.623Z,7.8
2023-01-26T21:43:11.321Z,7.8
2023-01-26T21:45:37.999Z,7.8
2023-01-26T21:50:31.359Z,7.8
2023-01-26T21:55:24.752Z,7.8
2023-01-26T21:57:49.960Z,7.8
2023-01-26T22:00:16.641Z,7.8
2023-01-26T22:02:43.323Z,7.8
2023-01-26T22:05:10.026Z,7.8
2023-01-26T22:10:03.385Z,7.8
2023-01-26T22:12:30.085Z,7.8
2023-01-26T22:14:56.753Z,7.8
2023-01-26T22:17:23.441Z,7.8
2023-01-26T22:19:50.160Z,7.8
2023-01-26T22:24:43.506Z,7.8
2023-01-26T22:27:10.179Z,7.8
2023-01-26T22:29:35.420Z,7.8
2023-01-26T22:32:02.088Z,7.8
2023-01-26T22:34:28.824Z,7.8
2023-01-26T22:39:22.149Z,7.8
2023-01-26T22:41:48.832Z,7.8
2023-01-26T22:44:15.527Z,7.8
2023-01-26T22:46:42.215Z,7.8
2023-01-26T22:49:08.940Z,7.8
2023-01-26T22:54:02.293Z,7.8
2023-01-26T22:56:28.954Z,7.8
2023-01-26T22:58:55.641Z,7.8
2023-01-26T23:01:20.859Z,7.8
2023-01-26T23:03:47.533Z,7.8
2023-01-26T23:08:40.916Z,7.7
2023-01-26T23:11:07.600Z,7.7
2023-01-26T23:13:34.284Z,7.8
2023-01-26T23:16:01.041Z,7.8
2023-01-26T23:18:27.659Z,7.8
2023-01-26T23:23:21.067Z,7.8
2023-01-26T23:25:47.715Z,7.7
2023-01-26T23:28:14.399Z,7.8
2023-01-26T23:30:41.075Z,7.8
2023-01-26T23:33:06.294Z,7.8
2023-01-26T23:37:59.667Z,7.8
2023-01-26T23:40:26.358Z,7.8
2023-01-26T23:42:53.048Z,7.8
2023-01-26T23:45:19.733Z,7.8
2023-01-26T23:47:46.424Z,7.8
2023-01-26T23:50:13.089Z,7.8
2023-01-26T23:52:39.786Z,7.7
2023-01-26T23:55:06.483Z,7.7
2023-01-26T23:57:33.152Z,7.7
2023-01-26T23:59:59.821Z,7.7
